createdAt,value
2023-05-15T00:00:00.000Z,3.08
2023-05-15T00:15:00.000Z,3.17
2023-05-15T00:30:00.000Z,4.11
2023-05-15T00:45:00.000Z,5.88
2023-05-15T01:00:00.000Z,6.91
2023-05-15T01:15:00.000Z,5.91
2023-05-15T01:30:00.000Z,5.46
2023-05-15T01:45:00.000Z,4.97
2023-05-15T02:00:00.000Z,5
2023-05-15T02:15:00.000Z,5.53
2023-05-15T02:30:00.000Z,6.58
2023-05-15T02:45:00.000Z,7.46
2023-05-15T03:00:00.000Z,9.43
2023-05-15T03:15:00.000Z,10.62
2023-05-15T03:30:00.000Z,10.2
2023-05-15T03:45:00.000Z,9.64
2023-05-15T04:00:00.000Z,9.62
2023-05-15T04:15:00.000Z,8.88
2023-05-15T04:30:00.000Z,8.48
2023-05-15T04:45:00.000Z,12.29
2023-05-15T05:00:00.000Z,8.86
2023-05-15T05:15:00.000Z,8.96
2023-05-15T05:30:00.000Z,5.34
2023-05-15T05:45:00.000Z,3.73
2023-05-15T06:00:00.000Z,4.31
2023-05-15T06:15:00.000Z,5.13
2023-05-15T06:30:00.000Z,5.88
2023-05-15T06:45:00.000Z,6.71
2023-05-15T07:00:00.000Z,6.9
2023-05-15T07:15:00.000Z,7.21
2023-05-15T07:30:00.000Z,5.62
2023-05-15T07:45:00.000Z,8.92
2023-05-15T08:00:00.000Z,9.7
2023-05-15T08:15:00.000Z,7.37
2023-05-15T08:30:00.000Z,6.31
2023-05-15T08:45:00.000Z,4.66
2023-05-15T09:00:00.000Z,3.18
2023-05-15T09:15:00.000Z,5.28
2023-05-15T09:30:00.000Z,5.83
2023-05-15T09:45:00.000Z,4.26
2023-05-15T10:00:00.000Z,4.8
2023-05-15T10:15:00.000Z,8.57
2023-05-15T10:30:00.000Z,7.02
2023-05-15T10:45:00.000Z,8.19
2023-05-15T11:00:00.000Z,4.13
2023-05-15T11:15:00.000Z,2.13
2023-05-15T11:30:00.000Z,2.06
2023-05-15T11:45:00.000Z,1.53
2023-05-15T12:00:00.000Z,1.57
2023-05-15T12:15:00.000Z,1.67
2023-05-15T12:30:00.000Z,2.49
2023-05-15T12:45:00.000Z,3.67
2023-05-15T13:00:00.000Z,3.24
2023-05-15T13:15:00.000Z,2.91
2023-05-15T13:30:00.000Z,2.02
2023-05-15T13:45:00.000Z,2
2023-05-15T14:00:00.000Z,1.83
2023-05-15T14:15:00.000Z,2.17
2023-05-15T14:30:00.000Z,2.52
2023-05-15T14:45:00.000Z,3.87
2023-05-15T15:00:00.000Z,4.43
2023-05-15T15:15:00.000Z,4.08
2023-05-15T15:30:00.000Z,6.11
2023-05-15T15:45:00.000Z,7.84
2023-05-15T16:00:00.000Z,4.57
2023-05-15T16:15:00.000Z,4.08
2023-05-15T16:30:00.000Z,3.53
2023-05-15T16:45:00.000Z,6.16
2023-05-15T17:00:00.000Z,4.33
2023-05-15T17:15:00.000Z,4.18
2023-05-15T17:30:00.000Z,4.53
2023-05-15T17:45:00.000Z,4.5
2023-05-15T18:00:00.000Z,4.83
2023-05-15T18:15:00.000Z,5.82
2023-05-15T18:30:00.000Z,5.93
2023-05-15T18:45:00.000Z,6.99
2023-05-15T19:00:00.000Z,7.4
2023-05-15T19:15:00.000Z,7.81
2023-05-15T19:30:00.000Z,7.16
2023-05-15T19:45:00.000Z,6.97
2023-05-15T20:00:00.000Z,6.8
2023-05-15T20:15:00.000Z,7.13
2023-05-15T20:30:00.000Z,7.1
2023-05-15T20:45:00.000Z,7.11
2023-05-15T21:00:00.000Z,7.74
2023-05-15T21:15:00.000Z,7.96
2023-05-15T21:30:00.000Z,8.23
2023-05-15T21:45:00.000Z,8.89
2023-05-15T22:00:00.000Z,7.49
2023-05-15T22:15:00.000Z,7.02
2023-05-15T22:30:00.000Z,6.82
2023-05-15T22:45:00.000Z,6.94
2023-05-15T23:00:00.000Z,7
2023-05-15T23:15:00.000Z,6.99
2023-05-15T23:30:00.000Z,6.66
2023-05-15T23:45:00.000Z,6.56
